createdAt,value
2022-12-14T00:01:24.872Z,20.57
2022-12-14T00:03:52.573Z,19.13
2022-12-14T00:06:21.149Z,19.20
2022-12-14T00:08:49.782Z,16.30
2022-12-14T00:11:17.498Z,17.87
2022-12-14T00:13:44.938Z,21.33
2022-12-14T00:16:18.675Z,22.13
2022-12-14T00:18:49.727Z,24.47
2022-12-14T00:21:17.189Z,19.23
2022-12-14T00:23:45.385Z,19.43
2022-12-14T00:26:14.565Z,20.33
2022-12-14T00:28:42.490Z,20.70
2022-12-14T00:31:10.972Z,23.23
2022-12-14T00:33:40.088Z,19.00
2022-12-14T00:36:08.669Z,22.20
2022-12-14T00:38:36.319Z,24.73
2022-12-14T00:41:05.202Z,20.97
2022-12-14T00:43:32.966Z,19.93
2022-12-14T00:46:00.535Z,23.90
2022-12-14T00:48:28.747Z,22.30
2022-12-14T00:50:57.753Z,23.33
2022-12-14T00:53:25.535Z,20.47
2022-12-14T00:55:52.983Z,21.27
2022-12-14T00:58:21.381Z,24.03
2022-12-14T01:00:54.356Z,20.50
2022-12-14T01:03:21.856Z,21.70
2022-12-14T01:05:49.592Z,22.20
2022-12-14T01:08:18.443Z,20.00
2022-12-14T01:10:45.932Z,23.57
2022-12-14T01:13:13.372Z,24.17
2022-12-14T01:15:40.840Z,22.87
2022-12-14T01:18:08.400Z,22.77
2022-12-14T01:20:37.018Z,26.73
2022-12-14T01:23:04.441Z,23.03
2022-12-14T01:25:33.190Z,24.03
2022-12-14T01:28:00.591Z,23.43
2022-12-14T01:30:28.140Z,24.73
2022-12-14T01:32:55.594Z,22.63
2022-12-14T01:35:23.035Z,25.73
2022-12-14T01:37:50.513Z,20.60
2022-12-14T01:40:18.342Z,23.80
2022-12-14T01:42:47.136Z,23.83
2022-12-14T01:45:18.972Z,23.60
2022-12-14T01:47:50.305Z,23.50
2022-12-14T01:50:22.058Z,21.53
2022-12-14T01:52:50.502Z,21.60
2022-12-14T01:55:20.293Z,24.17
2022-12-14T01:57:53.544Z,22.63
2022-12-14T02:00:21.595Z,21.57
2022-12-14T02:02:52.433Z,25.40
2022-12-14T02:05:21.834Z,24.57
2022-12-14T02:07:49.533Z,22.47
2022-12-14T02:10:17.098Z,21.83
2022-12-14T02:12:45.722Z,22.83
2022-12-14T02:15:15.066Z,23.60
2022-12-14T02:17:43.721Z,24.63
2022-12-14T02:20:11.961Z,23.13
2022-12-14T02:23:07.357Z,24.13
2022-12-14T02:25:41.801Z,25.43
2022-12-14T02:28:16.481Z,25.23
2022-12-14T02:30:49.834Z,25.63
2022-12-14T02:33:24.295Z,20.93
2022-12-14T02:35:55.385Z,22.87
2022-12-14T02:38:28.369Z,22.93
2022-12-14T02:41:01.040Z,22.93
2022-12-14T02:43:32.738Z,25.17
2022-12-14T02:46:05.785Z,21.80
2022-12-14T02:48:36.689Z,21.80
2022-12-14T02:51:07.827Z,22.17
2022-12-14T02:53:37.522Z,23.83
2022-12-14T02:56:07.475Z,24.20
2022-12-14T02:58:37.517Z,23.17
2022-12-14T03:01:09.248Z,23.93
2022-12-14T03:03:36.821Z,28.63
2022-12-14T03:06:14.674Z,23.53
2022-12-14T03:08:44.059Z,26.90
2022-12-14T03:11:12.610Z,25.47
2022-12-14T03:13:42.236Z,22.90
2022-12-14T03:16:13.853Z,25.17
2022-12-14T03:18:43.734Z,22.80
2022-12-14T03:21:12.667Z,21.90
2022-12-14T03:23:42.234Z,24.53
2022-12-14T03:26:13.929Z,25.17
2022-12-14T03:28:45.541Z,25.00
2022-12-14T03:31:17.065Z,25.80
2022-12-14T03:33:46.111Z,26.13
2022-12-14T03:36:16.393Z,25.30
2022-12-14T03:38:44.702Z,26.23
2022-12-14T03:41:17.973Z,25.50
2022-12-14T03:43:49.790Z,25.63
2022-12-14T03:46:24.453Z,22.87
2022-12-14T03:48:52.953Z,24.07
2022-12-14T03:51:22.687Z,27.40
2022-12-14T03:53:52.994Z,26.10
2022-12-14T03:56:24.024Z,26.73
2022-12-14T03:58:57.578Z,24.70
2022-12-14T04:01:29.503Z,24.33
2022-12-14T04:03:58.593Z,24.53
2022-12-14T04:06:30.610Z,25.23
2022-12-14T04:09:03.461Z,26.67
2022-12-14T04:11:56.379Z,29.67
2022-12-14T04:14:44.176Z,27.17
2022-12-14T04:17:46.675Z,24.13
2022-12-14T04:20:17.844Z,28.47
2022-12-14T04:22:48.132Z,28.83
2022-12-14T04:25:34.897Z,28.60
2022-12-14T04:28:05.086Z,27.93
2022-12-14T04:30:33.064Z,27.93
2022-12-14T04:33:23.710Z,25.40
2022-12-14T04:35:51.786Z,26.83
2022-12-14T04:38:22.800Z,26.70
2022-12-14T04:40:53.047Z,27.97
2022-12-14T04:43:21.822Z,26.80
2022-12-14T04:45:51.461Z,28.80
2022-12-14T04:48:26.335Z,30.43
2022-12-14T04:50:56.662Z,28.43
2022-12-14T04:53:26.604Z,28.27
2022-12-14T04:55:59.770Z,31.13
2022-12-14T04:58:28.527Z,30.70
2022-12-14T05:01:10.941Z,29.33
2022-12-14T05:03:46.775Z,31.50
2022-12-14T05:06:17.983Z,30.83
2022-12-14T05:08:58.209Z,29.13
2022-12-14T05:14:18.380Z,28.77
2022-12-14T05:16:48.951Z,31.57
2022-12-14T05:19:18.419Z,34.33
2022-12-14T05:21:48.704Z,30.47
2022-12-14T05:24:17.033Z,34.40
2022-12-14T05:26:45.149Z,27.73
2022-12-14T05:29:12.785Z,30.70
2022-12-14T05:31:40.711Z,30.13
2022-12-14T05:34:08.172Z,28.80
2022-12-14T05:36:36.971Z,30.23
2022-12-14T05:39:04.537Z,31.27
2022-12-14T05:41:31.967Z,27.77
2022-12-14T05:43:59.366Z,31.63
2022-12-14T05:46:26.890Z,26.10
2022-12-14T05:48:54.585Z,31.00
2022-12-14T05:51:22.057Z,29.93
2022-12-14T05:53:50.869Z,30.47
2022-12-14T05:56:18.341Z,29.67
2022-12-14T05:58:45.771Z,28.13
2022-12-14T06:01:18.796Z,27.20
2022-12-14T06:03:46.966Z,30.97
2022-12-14T06:06:15.382Z,28.40
2022-12-14T06:08:43.607Z,27.53
2022-12-14T06:11:13.757Z,27.10
2022-12-14T06:13:41.808Z,25.73
2022-12-14T06:16:10.392Z,25.23
2022-12-14T06:18:37.939Z,28.90
2022-12-14T06:21:05.763Z,28.87
2022-12-14T06:23:33.184Z,30.33
2022-12-14T06:26:00.642Z,32.13
2022-12-14T06:28:29.475Z,33.87
2022-12-14T06:30:56.929Z,34.33
2022-12-14T06:33:24.528Z,35.23
2022-12-14T06:35:52.179Z,33.07
2022-12-14T06:38:19.603Z,31.87
2022-12-14T06:40:47.081Z,32.67
2022-12-14T06:43:14.596Z,32.33
2022-12-14T06:45:43.424Z,33.27
2022-12-14T06:48:10.909Z,30.50
2022-12-14T06:50:38.413Z,33.03
2022-12-14T06:53:05.869Z,29.67
2022-12-14T06:55:33.356Z,32.50
2022-12-14T06:58:00.831Z,30.23
2022-12-14T07:00:28.323Z,33.77
2022-12-14T07:02:57.325Z,33.90
2022-12-14T07:05:25.035Z,35.27
2022-12-14T07:07:52.450Z,31.17
2022-12-14T07:10:19.974Z,35.07
2022-12-14T07:12:47.432Z,33.97
2022-12-14T07:15:14.843Z,31.37
2022-12-14T07:17:42.291Z,28.80
2022-12-14T07:20:11.878Z,33.37
2022-12-14T07:22:40.478Z,26.97
2022-12-14T07:25:08.621Z,27.90
2022-12-14T07:27:36.073Z,34.73
2022-12-14T07:30:03.524Z,35.57
2022-12-14T07:32:30.981Z,29.90
2022-12-14T07:34:58.449Z,33.87
2022-12-14T07:37:27.241Z,32.17
2022-12-14T07:39:54.685Z,32.80
2022-12-14T07:42:22.102Z,32.27
2022-12-14T07:44:51.645Z,34.83
2022-12-14T07:47:19.081Z,31.97
2022-12-14T07:49:46.536Z,31.77
2022-12-14T07:52:15.237Z,30.87
2022-12-14T07:54:44.486Z,31.20
2022-12-14T07:57:12.058Z,33.77
2022-12-14T07:59:39.521Z,31.70
2022-12-14T08:02:07.085Z,32.00
2022-12-14T08:04:35.294Z,35.40
2022-12-14T08:07:03.068Z,34.23
2022-12-14T08:09:30.648Z,33.47
2022-12-14T08:11:59.445Z,33.33
2022-12-14T08:14:26.930Z,40.00
2022-12-14T08:16:54.384Z,37.67
2022-12-14T08:19:22.155Z,31.67
2022-12-14T08:21:49.864Z,34.20
2022-12-14T08:24:17.735Z,34.00
2022-12-14T08:26:47.267Z,32.77
2022-12-14T08:29:18.628Z,35.70
2022-12-14T08:31:46.083Z,35.10
2022-12-14T08:34:13.552Z,33.13
2022-12-14T08:36:41.022Z,35.00
2022-12-14T08:39:09.407Z,34.57
2022-12-14T08:41:37.195Z,34.07
2022-12-14T08:44:05.532Z,32.67
2022-12-14T08:46:35.124Z,33.10
2022-12-14T08:49:03.046Z,33.77
2022-12-14T08:51:30.663Z,30.80
2022-12-14T08:53:58.834Z,30.23
2022-12-14T08:56:27.150Z,32.20
2022-12-14T08:58:54.857Z,28.70
2022-12-14T09:01:31.774Z,29.03
2022-12-14T09:04:04.859Z,33.30
2022-12-14T09:06:33.810Z,33.43
2022-12-14T09:09:01.393Z,31.87
2022-12-14T09:11:29.128Z,29.77
2022-12-14T09:13:56.995Z,28.40
2022-12-14T09:16:26.227Z,28.50
2022-12-14T09:18:54.103Z,29.97
2022-12-14T09:21:23.313Z,28.90
2022-12-14T09:23:57.303Z,33.10
2022-12-14T09:26:26.588Z,32.03
2022-12-14T09:28:55.234Z,31.27
2022-12-14T09:31:23.382Z,31.77
2022-12-14T09:33:50.953Z,32.13
2022-12-14T09:36:19.569Z,35.77
2022-12-14T09:38:52.172Z,32.80
2022-12-14T09:41:25.175Z,32.90
2022-12-14T09:43:54.639Z,32.40
2022-12-14T09:46:28.387Z,32.73
2022-12-14T09:48:57.121Z,35.00
2022-12-14T09:51:28.180Z,33.13
2022-12-14T09:54:02.850Z,33.23
2022-12-14T09:56:30.469Z,32.60
2022-12-14T09:58:59.713Z,36.07
2022-12-14T10:01:38.847Z,31.63
2022-12-14T10:04:11.901Z,34.83
2022-12-14T10:06:42.068Z,32.40
2022-12-14T10:09:14.642Z,33.03
2022-12-14T10:11:45.521Z,32.70
2022-12-14T10:14:16.614Z,32.57
2022-12-14T10:16:51.674Z,28.03
2022-12-14T10:19:28.675Z,32.63
2022-12-14T10:21:58.429Z,33.80
2022-12-14T10:24:29.224Z,28.83
2022-12-14T10:26:56.750Z,30.37
2022-12-14T10:29:30.415Z,29.87
2022-12-14T10:32:03.461Z,31.53
2022-12-14T10:34:32.393Z,32.40
2022-12-14T10:37:05.413Z,30.03
2022-12-14T10:39:39.886Z,31.43
2022-12-14T10:42:11.493Z,30.43
2022-12-14T10:44:44.837Z,31.80
2022-12-14T10:47:22.502Z,32.77
2022-12-14T10:49:52.892Z,34.70
2022-12-14T10:52:21.966Z,32.13
2022-12-14T10:54:52.027Z,34.20
2022-12-14T10:57:20.162Z,36.43
2022-12-14T11:00:07.244Z,34.17
2022-12-14T11:02:38.852Z,35.00
2022-12-14T11:05:14.863Z,40.13
2022-12-14T11:07:45.758Z,39.07
2022-12-14T11:10:18.960Z,32.47
2022-12-14T11:12:55.890Z,33.23
2022-12-14T11:15:24.616Z,34.60
2022-12-14T11:18:01.809Z,32.37
2022-12-14T11:20:29.486Z,31.77
2022-12-14T11:22:58.753Z,34.10
2022-12-14T11:25:32.109Z,32.77
2022-12-14T11:28:00.357Z,31.97
2022-12-14T11:30:28.803Z,30.43
2022-12-14T11:32:56.324Z,33.37
2022-12-14T11:35:23.861Z,33.60
2022-12-14T11:37:51.866Z,32.53
2022-12-14T11:40:20.778Z,36.43
2022-12-14T11:42:50.905Z,31.90
2022-12-14T11:45:31.391Z,33.20
2022-12-14T11:48:11.914Z,31.23
2022-12-14T11:50:39.347Z,34.87
2022-12-14T11:53:11.212Z,31.00
2022-12-14T11:55:41.567Z,29.97
2022-12-14T11:58:13.703Z,33.00
2022-12-14T12:00:47.142Z,36.30
2022-12-14T12:03:17.051Z,36.43
2022-12-14T12:05:45.165Z,37.73
2022-12-14T12:08:20.528Z,35.40
2022-12-14T12:10:49.883Z,38.03
2022-12-14T12:13:20.775Z,41.33
2022-12-14T12:15:50.282Z,36.80
2022-12-14T12:18:18.974Z,40.03
2022-12-14T12:20:50.194Z,35.00
2022-12-14T12:23:20.879Z,36.73
2022-12-14T12:25:49.547Z,32.17
2022-12-14T12:28:19.504Z,34.90
2022-12-14T12:30:50.503Z,33.87
2022-12-14T12:33:27.431Z,30.60
2022-12-14T12:35:55.926Z,33.53
2022-12-14T12:38:31.237Z,33.63
2022-12-14T12:41:01.581Z,32.07
2022-12-14T12:43:30.808Z,32.47
2022-12-14T12:46:00.441Z,30.53
2022-12-14T12:48:31.196Z,31.13
2022-12-14T12:51:00.989Z,32.03
2022-12-14T12:53:31.211Z,34.67
2022-12-14T12:56:05.043Z,31.40
2022-12-14T12:58:34.392Z,32.53
2022-12-14T13:01:06.046Z,31.20
2022-12-14T13:03:37.911Z,32.30
2022-12-14T13:06:11.414Z,34.17
2022-12-14T13:08:41.083Z,33.80
2022-12-14T13:11:28.042Z,32.93
2022-12-14T13:13:57.680Z,32.33
2022-12-14T13:16:30.466Z,31.33
2022-12-14T13:19:18.976Z,31.90
2022-12-14T13:21:51.669Z,32.83
2022-12-14T13:24:19.890Z,33.27
2022-12-14T13:27:01.557Z,32.83
2022-12-14T13:29:34.147Z,30.67
2022-12-14T13:32:06.742Z,34.43
2022-12-14T13:34:39.766Z,32.67
2022-12-14T13:37:25.132Z,32.83
2022-12-14T13:40:03.893Z,32.57
2022-12-14T13:42:38.880Z,32.60
2022-12-14T13:45:07.187Z,32.87
2022-12-14T13:47:39.853Z,35.27
2022-12-14T13:52:58.179Z,34.23
2022-12-14T13:55:32.123Z,34.33
2022-12-14T13:58:17.011Z,34.40
2022-12-14T14:00:50.266Z,36.10
2022-12-14T14:03:32.696Z,36.00
2022-12-14T14:06:03.101Z,37.53
2022-12-14T14:08:37.677Z,37.60
2022-12-14T14:11:37.117Z,38.37
2022-12-14T14:14:12.315Z,36.23
2022-12-14T14:16:42.796Z,34.33
2022-12-14T14:19:18.613Z,36.90
2022-12-14T14:22:22.303Z,34.97
2022-12-14T14:24:59.237Z,35.20
2022-12-14T14:27:28.716Z,36.60
2022-12-14T14:29:56.746Z,36.70
2022-12-14T14:32:32.266Z,37.43
2022-12-14T14:35:00.391Z,34.03
2022-12-14T14:37:36.648Z,32.63
2022-12-14T14:40:23.880Z,34.37
2022-12-14T14:42:57.396Z,26.13
2022-12-14T14:45:29.736Z,21.97
2022-12-14T14:47:58.018Z,22.53
2022-12-14T14:50:27.411Z,18.90
2022-12-14T14:53:00.392Z,18.40
2022-12-14T14:55:54.886Z,18.20
2022-12-14T14:58:24.132Z,15.93
2022-12-14T15:00:52.953Z,15.53
2022-12-14T15:03:22.961Z,12.10
2022-12-14T15:05:50.570Z,13.83
2022-12-14T15:08:21.789Z,11.80
2022-12-14T15:10:50.271Z,10.23
2022-12-14T15:13:19.403Z,12.63
2022-12-14T15:15:47.649Z,13.13
2022-12-14T15:18:15.685Z,12.70
2022-12-14T15:20:43.702Z,12.77
2022-12-14T15:23:14.299Z,10.33
2022-12-14T15:25:44.086Z,14.80
2022-12-14T15:28:18.765Z,8.83
2022-12-14T15:30:47.526Z,10.20
2022-12-14T15:33:21.742Z,9.40
2022-12-14T15:35:49.443Z,11.33
2022-12-14T15:38:19.507Z,12.00
2022-12-14T15:40:55.975Z,11.17
2022-12-14T15:43:24.066Z,13.47
2022-12-14T15:45:53.103Z,13.00
2022-12-14T15:48:23.271Z,13.13
2022-12-14T15:50:52.673Z,15.17
2022-12-14T15:53:24.091Z,14.33
2022-12-14T15:56:00.313Z,13.80
2022-12-14T15:58:31.859Z,15.30
2022-12-14T16:01:01.740Z,16.53
2022-12-14T16:03:31.550Z,18.00
2022-12-14T16:06:00.317Z,19.70
2022-12-14T16:08:28.208Z,19.17
2022-12-14T16:10:56.530Z,22.30
2022-12-14T16:13:27.148Z,24.43
2022-12-14T16:15:57.030Z,17.37
2022-12-14T16:18:25.324Z,18.03
2022-12-14T16:20:56.774Z,18.20
2022-12-14T16:23:27.689Z,19.43
2022-12-14T16:25:58.057Z,18.03
2022-12-14T16:28:27.248Z,17.03
2022-12-14T16:31:01.569Z,15.77
2022-12-14T16:33:30.335Z,16.73
2022-12-14T16:36:04.067Z,17.50
2022-12-14T16:38:31.891Z,17.23
2022-12-14T16:41:00.299Z,20.67
2022-12-14T16:43:29.848Z,20.90
2022-12-14T16:46:09.698Z,20.30
2022-12-14T16:48:38.830Z,18.90
2022-12-14T16:51:58.408Z,18.00
2022-12-14T16:54:24.517Z,16.77
2022-12-14T16:56:54.335Z,15.70
2022-12-14T16:59:23.204Z,16.17
2022-12-14T17:01:52.277Z,18.40
2022-12-14T17:04:20.901Z,17.50
2022-12-14T17:06:49.466Z,17.33
2022-12-14T17:09:20.391Z,23.97
2022-12-14T17:11:48.818Z,20.50
2022-12-14T17:14:16.340Z,22.00
2022-12-14T17:16:44.831Z,20.53
2022-12-14T17:19:16.754Z,17.60
2022-12-14T17:21:44.383Z,15.80
2022-12-14T17:24:14.430Z,16.00
2022-12-14T17:26:41.855Z,15.17
2022-12-14T17:29:12.899Z,17.00
2022-12-14T17:31:44.619Z,18.27
2022-12-14T17:34:19.045Z,16.47
2022-12-14T17:36:47.543Z,16.20
2022-12-14T17:39:14.971Z,16.77
2022-12-14T17:41:43.768Z,18.23
2022-12-14T17:44:13.891Z,16.33
2022-12-14T17:46:41.429Z,17.00
2022-12-14T17:49:09.089Z,20.37
2022-12-14T17:51:41.967Z,17.23
2022-12-14T17:54:13.190Z,16.10
2022-12-14T17:56:40.681Z,17.53
2022-12-14T17:59:08.106Z,16.77
2022-12-14T18:01:35.687Z,16.10
2022-12-14T18:04:03.335Z,16.97
2022-12-14T18:06:30.975Z,17.10
2022-12-14T18:08:59.780Z,14.93
2022-12-14T18:11:27.827Z,17.87
2022-12-14T18:13:55.582Z,14.03
2022-12-14T18:16:24.236Z,14.63
2022-12-14T18:18:53.897Z,20.07
2022-12-14T18:21:22.389Z,17.10
2022-12-14T18:23:50.302Z,13.83
2022-12-14T18:26:20.951Z,12.37
2022-12-14T18:28:48.867Z,12.43
2022-12-14T18:31:27.265Z,12.93
2022-12-14T18:33:55.331Z,13.20
2022-12-14T18:36:22.989Z,13.87
2022-12-14T18:38:51.268Z,12.83
2022-12-14T18:41:21.956Z,12.13
2022-12-14T18:43:49.860Z,11.20
2022-12-14T18:46:17.375Z,12.17
2022-12-14T18:48:45.389Z,14.70
2022-12-14T18:51:13.905Z,11.27
2022-12-14T18:53:42.461Z,11.93
2022-12-14T18:56:11.455Z,10.67
2022-12-14T18:58:41.972Z,10.67
2022-12-14T19:01:14.256Z,10.73
2022-12-14T19:03:41.881Z,9.57
2022-12-14T19:06:42.943Z,10.43
2022-12-14T19:08:59.105Z,9.20
2022-12-14T19:11:30.419Z,11.00
2022-12-14T19:13:59.310Z,10.43
2022-12-14T19:16:26.774Z,10.13
2022-12-14T19:18:54.361Z,11.43
2022-12-14T19:21:21.794Z,10.43
2022-12-14T19:23:49.254Z,9.93
2022-12-14T19:26:16.759Z,11.13
2022-12-14T19:28:44.393Z,12.50
2022-12-14T19:31:13.395Z,12.33
2022-12-14T19:33:40.895Z,12.30
2022-12-14T19:36:09.223Z,13.83
2022-12-14T19:38:36.929Z,12.60
2022-12-14T19:41:05.730Z,13.07
2022-12-14T19:43:34.106Z,13.13
2022-12-14T19:46:05.753Z,14.10
2022-12-14T19:48:34.972Z,13.80
2022-12-14T19:51:03.889Z,12.27
2022-12-14T19:53:32.325Z,14.20
2022-12-14T19:56:00.118Z,12.27
2022-12-14T19:58:28.331Z,15.10
2022-12-14T20:00:55.798Z,15.90
2022-12-14T20:03:23.783Z,12.67
2022-12-14T20:05:54.846Z,14.80
2022-12-14T20:08:22.351Z,12.67
2022-12-14T20:10:50.315Z,11.53
2022-12-14T20:13:17.781Z,14.70
2022-12-14T20:15:48.906Z,14.83
2022-12-14T20:18:16.821Z,15.73
2022-12-14T20:20:44.338Z,15.73
2022-12-14T20:23:18.422Z,13.20
2022-12-14T20:25:46.098Z,14.50
2022-12-14T20:28:13.530Z,15.10
2022-12-14T20:30:43.206Z,16.30
2022-12-14T20:33:10.878Z,16.73
2022-12-14T20:35:38.372Z,13.57
2022-12-14T20:38:05.852Z,18.33
2022-12-14T20:40:38.364Z,15.30
2022-12-14T20:43:06.193Z,14.97
2022-12-14T20:45:37.580Z,12.30
2022-12-14T20:48:05.182Z,15.70
2022-12-14T20:50:32.638Z,13.77
2022-12-14T20:53:00.088Z,15.87
2022-12-14T20:55:27.879Z,13.40
2022-12-14T20:57:56.687Z,16.10
2022-12-14T21:00:24.126Z,16.00
2022-12-14T21:02:51.766Z,12.57
2022-12-14T21:05:19.315Z,16.93
2022-12-14T21:07:46.790Z,14.77
2022-12-14T21:10:14.239Z,16.63
2022-12-14T21:12:40.685Z,15.43
2022-12-14T21:15:09.734Z,14.20
2022-12-14T21:17:37.214Z,13.50
2022-12-14T21:20:05.047Z,15.27
2022-12-14T21:22:34.857Z,16.30
2022-12-14T21:25:04.647Z,15.40
2022-12-14T21:27:33.409Z,19.33
2022-12-14T21:30:01.054Z,22.70
2022-12-14T21:32:29.939Z,24.30
2022-12-14T21:34:57.423Z,26.30
2022-12-14T21:37:24.891Z,24.67
2022-12-14T21:39:54.252Z,26.70
2022-12-14T21:42:22.385Z,29.03
2022-12-14T21:44:50.421Z,26.87
2022-12-14T21:47:18.503Z,25.83
2022-12-14T21:49:47.741Z,27.07
2022-12-14T21:52:16.821Z,27.43
2022-12-14T21:54:44.396Z,26.93
2022-12-14T21:57:31.190Z,30.17
2022-12-14T21:59:58.625Z,23.40
2022-12-14T22:02:26.218Z,25.43
2022-12-14T22:04:56.546Z,22.33
2022-12-14T22:07:25.029Z,22.23
2022-12-14T22:09:52.535Z,19.37
2022-12-14T22:12:20.033Z,19.93
2022-12-14T22:14:47.498Z,34.13
2022-12-14T22:17:14.964Z,20.60
2022-12-14T22:19:42.393Z,21.27
2022-12-14T22:22:13.799Z,19.30
2022-12-14T22:24:41.233Z,18.27
2022-12-14T22:27:09.447Z,18.20
2022-12-14T22:29:37.076Z,17.70
2022-12-14T22:32:04.682Z,14.80
2022-12-14T22:34:32.166Z,14.10
2022-12-14T22:36:59.595Z,13.23
2022-12-14T22:39:28.421Z,13.17
2022-12-14T22:41:56.519Z,12.87
2022-12-14T22:44:23.938Z,13.13
2022-12-14T22:46:51.425Z,12.93
2022-12-14T22:49:19.612Z,12.30
2022-12-14T22:51:47.175Z,12.53
2022-12-14T22:54:17.286Z,12.80
2022-12-14T22:56:47.525Z,16.03
2022-12-14T22:59:16.820Z,16.17
2022-12-14T23:01:44.626Z,24.67
2022-12-14T23:04:18.014Z,22.83
2022-12-14T23:06:45.830Z,19.77
2022-12-14T23:09:30.559Z,19.27
2022-12-14T23:12:21.506Z,19.67
2022-12-14T23:15:07.104Z,24.53
2022-12-14T23:17:51.984Z,19.87
2022-12-14T23:20:36.843Z,17.57
2022-12-14T23:23:23.673Z,21.87
2022-12-14T23:26:08.568Z,21.10
2022-12-14T23:28:54.726Z,17.67
2022-12-14T23:31:40.051Z,16.87
2022-12-14T23:34:24.810Z,15.90
2022-12-14T23:37:09.564Z,12.00
2022-12-14T23:39:54.510Z,12.17
2022-12-14T23:42:39.396Z,10.83
2022-12-14T23:45:26.600Z,12.47
2022-12-14T23:48:14.408Z,11.53
2022-12-14T23:50:59.323Z,9.67
2022-12-14T23:53:44.087Z,11.07
2022-12-14T23:56:34.851Z,10.43
2022-12-14T23:59:22.767Z,9.47
